Thunder radar more information blitzortung!


Radar de pluja more information rain snow radar


Visita la nostra xarxa de llocs de meteo:

Template documentation
and downloads

And another site



Extreme low temperature From: 13-12-2017 09:00 Until: 09:59 warning for: Extreme low temperature Level: Yellow info button

Pagina Historial Weather Underground text

Diari Resum Agost 26, 2017 Unitats:  Imperial    Mètric   Tant
« Previous Dia
SegĂźent Dia »
Diari Setmana Mensual Anual Personalitzada
  Maxima: Minima: Media:
Temperatura: 88.9 °F 68.9 °F 80.1 °F
Punt de rosada: 67.3 °F 62.8 °F 65.5 °F
Humitat: 83 % 45 % 62 %
Wind Speed: 12.7 mph 0 mph 4.3 mph
RĂ fegues de vent: 12.7 mph - -
Vent:- - SE
Pression baro: 30.1 in 29.9 in -
Precipitacions: 0 in    
Historical Graphs
 
 
Dades de taula per Agost 26, 2017
Temps Temperatura Punt de rosada Pression baro Vent Wind Speed RĂ fegues de vent Humitat Rainfall Rate (Hourly)
00:00 73.8 °F 63.3 °F 30.1 in West 2.3 mph 2.9 mph 70 % 0 in
00:05 73.9 °F 63.9 °F 30.1 in West 2.9 mph 2.9 mph 71 % 0 in
00:10 73.8 °F 63.9 °F 30.1 in West 3.5 mph 3.5 mph 71 % 0 in
00:15 73.9 °F 64.2 °F 30 in WSW 2.3 mph 2.3 mph 72 % 0 in
00:20 73.8 °F 64.2 °F 30 in NE 2.3 mph   72 % 0 in
00:30 70.9 °F 64 °F 30 in Calm   2 mph 79 % 0 in
00:40 70.7 °F 63.9 °F 30 in Calm     79 % 0 in
00:50 70.5 °F 63.7 °F 30 in Calm     79 % 0 in
01:00 70.3 °F 63.5 °F 30 in WNW 1 mph 1 mph 79 % 0 in
01:10 70.3 °F 63.9 °F 30 in NE 1 mph   80 % 0 in
01:20 70.2 °F 63.7 °F 30 in Calm     80 % 0 in
01:30 70 °F 63.5 °F 29.9 in Calm     80 % 0 in
01:40 69.8 °F 63.3 °F 29.9 in Calm     80 % 0 in
01:50 69.8 °F 63 °F 30 in WNW 2 mph 2 mph 79 % 0 in
02:00 69.6 °F 63.5 °F 30 in Calm   2 mph 81 % 0 in
02:10 69.8 °F 63.3 °F 30 in Calm   2 mph 80 % 0 in
02:20 70.2 °F 64 °F 30 in Calm     81 % 0 in
02:30 70.3 °F 64.2 °F 30 in West 1 mph 2 mph 81 % 0 in
02:40 70.3 °F 63.9 °F 30 in ENE 1 mph 2 mph 80 % 0 in
02:50 70 °F 63.5 °F 30 in NE 1 mph 2 mph 80 % 0 in
03:00 70 °F 63.5 °F 30 in Calm     80 % 0 in
03:10 69.6 °F 63.5 °F 30 in Calm     81 % 0 in
03:20 69.4 °F 63.3 °F 30 in East 1 mph 2 mph 81 % 0 in
03:30 69.3 °F 63.1 °F 30 in SSW 1 mph 1 mph 81 % 0 in
03:40 69.1 °F 63.3 °F 30 in Calm   1 mph 82 % 0 in
03:50 69.1 °F 63.3 °F 30 in WSW 1 mph 2 mph 82 % 0 in
04:00 68.9 °F 63.1 °F 30 in WSW 2 mph 2 mph 82 % 0 in
04:10 69.4 °F 64 °F 30 in Calm   1 mph 83 % 0 in
04:20 70.3 °F 64.6 °F 30 in SSW 1 mph 2 mph 82 % 0 in
04:30 71.2 °F 64.8 °F 30 in SE 1 mph 2 mph 80 % 0 in
04:40 72.1 °F 65.3 °F 30 in Calm   2 mph 79 % 0 in
04:50 72.9 °F 65.7 °F 30 in Calm   2 mph 78 % 0 in
05:00 73.2 °F 65.1 °F 30 in NNE 2 mph 4 mph 76 % 0 in
05:10 73.8 °F 64.6 °F 30 in NE 2 mph 6 mph 73 % 0 in
05:20 74.3 °F 64.2 °F 30 in NE 3 mph 6 mph 71 % 0 in
05:30 75.4 °F 64.6 °F 30 in NE 3 mph 4 mph 69 % 0 in
05:40 75.7 °F 64 °F 30 in NE 2 mph 8 mph 67 % 0 in
05:50 77 °F 64.2 °F 30 in NNE 3 mph 6 mph 65 % 0 in
10:52 80.2 °F 66.6 °F 30 in NE 3.5 mph 3.5 mph 63 % 0 in
10:53 80.2 °F 66.6 °F 30 in East 3.5 mph 3.5 mph 63 % 0 in
10:55 80.6 °F 66.4 °F 30 in NNE 3.5 mph 3.5 mph 62 % 0 in
11:00 80.6 °F 65.8 °F 30 in ENE 2.4 mph 2.4 mph 61 % 0 in
11:05 80.6 °F 65.5 °F 30 in NE 4.6 mph 4.6 mph 60 % 0 in
11:10 80.8 °F 65.7 °F 30 in WNW 2.3 mph 2.4 mph 60 % 0 in
11:15 81.7 °F 66.4 °F 30 in West 2 mph 2 mph 60 % 0 in
11:20 82.9 °F 67.1 °F 30 in NE 3.5 mph 3.5 mph 59 % 0 in
11:25 83.7 °F 66.7 °F 30 in NE 2.4 mph 2.4 mph 57 % 0 in
11:30 83.5 °F 66.6 °F 30 in ENE 2.3 mph 2.3 mph 57 % 0 in
11:35 83.7 °F 65.8 °F 30 in ESE 3.6 mph 3.6 mph 55 % 0 in
11:40 83.5 °F 64.6 °F 30 in NNE 3.5 mph 3.5 mph 53 % 0 in
11:45 84 °F 64.9 °F 30 in East 4.6 mph 4.6 mph 53 % 0 in
11:50 85.3 °F 66.2 °F 30 in ENE 2.4 mph 2.4 mph 53 % 0 in
11:55 84.2 °F 63 °F 30 in SSE 5.8 mph 5.8 mph 49 % 0 in
12:00 84.6 °F 63.9 °F 30 in NE 3.5 mph 3.5 mph 50 % 0 in
12:05 85.8 °F 64.6 °F 30 in SE 3.5 mph 3.5 mph 49 % 0 in
12:10 86.4 °F 63.9 °F 30 in SSE 4.6 mph 4.6 mph 47 % 0 in
12:15 86.9 °F 64.8 °F 30 in SSE 2.3 mph 2.3 mph 48 % 0 in
12:20 87.3 °F 65.8 °F 30 in SSW 4.6 mph 4.6 mph 49 % 0 in
12:25 86.4 °F 64.9 °F 30 in South 6.9 mph 6.9 mph 49 % 0 in
12:30 86.7 °F 65.3 °F 30 in East 4.9 mph 4.9 mph 49 % 0 in
12:35 87.3 °F 65.1 °F 30 in ESE 4.6 mph 4.6 mph 48 % 0 in
12:40 86.9 °F 64.8 °F 30 in ESE 5.8 mph 5.8 mph 48 % 0 in
12:45 86.5 °F 62.8 °F 30 in ESE 3.6 mph 3.6 mph 45 % 0 in
12:50 87.3 °F 64.6 °F 30 in South 6.9 mph 6.9 mph 47 % 0 in
12:55 88.5 °F 65.1 °F 30 in SSE 4.6 mph 4.6 mph 46 % 0 in
12:56 88.9 °F 65.5 °F 30 in ESE 5.9 mph 5.9 mph 46 % 0 in
13:01 87.6 °F 65.5 °F 30 in ESE 8.1 mph 8.1 mph 48 % 0 in
13:06 87.6 °F 66 °F 30 in ENE 5.8 mph 5.8 mph 49 % 0 in
13:11 87.1 °F 65.7 °F 30 in ESE 6.9 mph 6.9 mph 49 % 0 in
13:16 87.8 °F 66.4 °F 30 in East 6.9 mph 6.9 mph 49 % 0 in
13:21 87.8 °F 65.7 °F 30 in ESE 9.4 mph 9.4 mph 48 % 0 in
13:26 87.8 °F 65.1 °F 30 in ESE 8.5 mph 8.5 mph 47 % 0 in
13:31 88.5 °F 65.1 °F 30 in ESE 9.2 mph 9.2 mph 46 % 0 in
13:36 87.8 °F 64.4 °F 30 in ESE 6.4 mph 6.4 mph 46 % 0 in
13:41 88.2 °F 66 °F 30 in ESE 10.5 mph 10.5 mph 48 % 0 in
13:46 88 °F 65.8 °F 30 in ESE 9.2 mph 9.2 mph 48 % 0 in
13:51 88 °F 66.4 °F 30 in SE 10.4 mph 10.4 mph 49 % 0 in
13:56 87.6 °F 66.7 °F 29.9 in SSW 8.1 mph 8.1 mph 50 % 0 in
14:01 87.1 °F 66.7 °F 29.9 in East 10.4 mph 10.4 mph 51 % 0 in
14:06 87.3 °F 66.9 °F 29.9 in ESE 8.1 mph 8.1 mph 51 % 0 in
14:11 87.6 °F 67.3 °F 30 in ESE 6.9 mph 6.9 mph 51 % 0 in
14:16 87.4 °F 66.6 °F 30 in SE 10.4 mph 10.4 mph 50 % 0 in
14:21 87.8 °F 65.7 °F 30 in ESE 7.4 mph 7.4 mph 48 % 0 in
14:26 88.2 °F 66.6 °F 30 in ENE 5.6 mph 5.6 mph 49 % 0 in
14:31 87.4 °F 65.8 °F 30 in SE 6.9 mph 6.9 mph 49 % 0 in
14:36 88.2 °F 66.6 °F 30 in SE 4 mph 4 mph 49 % 0 in
14:41 87.3 °F 65.8 °F 30 in East 9.2 mph 9.2 mph 49 % 0 in
14:46 87.4 °F 65.8 °F 30 in ESE 4.6 mph 4.7 mph 49 % 0 in
14:51 88.3 °F 66.2 °F 30 in SSE 5.8 mph 5.8 mph 48 % 0 in
14:56 87.6 °F 65.5 °F 30 in SE 8.1 mph 8.1 mph 48 % 0 in
15:01 88 °F 65.8 °F 30 in ENE 11.5 mph 11.5 mph 48 % 0 in
15:06 88.2 °F 65.5 °F 30 in ESE 11.5 mph 11.5 mph 47 % 0 in
15:11 87.6 °F 65.5 °F 30 in SW 9.2 mph 9.2 mph 48 % 0 in
15:16 88 °F 65.8 °F 30 in ESE 5.8 mph 5.8 mph 48 % 0 in
15:21 87.3 °F 65.1 °F 30 in ESE 8.1 mph 8.1 mph 48 % 0 in
15:26 86.5 °F 65.1 °F 30 in East 12.7 mph 12.7 mph 49 % 0 in
15:31 86.7 °F 65.3 °F 30 in ESE 8.1 mph 8.1 mph 49 % 0 in
15:36 86.7 °F 65.3 °F 30 in SSE 9.2 mph 9.2 mph 49 % 0 in
15:41 86.7 °F 65.8 °F 29.9 in ENE 9.2 mph 9.2 mph 50 % 0 in
15:46 87.1 °F 66.2 °F 29.9 in ESE 8.1 mph 8.1 mph 50 % 0 in
15:51 86.2 °F 65.5 °F 29.9 in ESE 10.2 mph 10.2 mph 50 % 0 in
15:56 85.8 °F 64.9 °F 30 in ESE 8.1 mph 8.1 mph 50 % 0 in
16:01 85.6 °F 64.9 °F 30 in SE 10.2 mph 10.2 mph 50 % 0 in
16:06 85.8 °F 64.9 °F 30 in East 8.1 mph 8.1 mph 50 % 0 in
16:11 86.2 °F 65.5 °F 30 in SW 5.8 mph 5.8 mph 50 % 0 in
16:16 85.6 °F 65.5 °F 30 in ESE 10.5 mph 10.5 mph 51 % 0 in
16:21 85.6 °F 65.5 °F 30 in SSE 9.2 mph 9.2 mph 51 % 0 in
16:26 85.8 °F 64.9 °F 29.9 in ESE 8.1 mph 8.1 mph 50 % 0 in
16:31 85.6 °F 64.9 °F 29.9 in ESE 8.1 mph 8.1 mph 50 % 0 in
16:36 86.2 °F 65.5 °F 29.9 in ESE 6.9 mph 6.9 mph 50 % 0 in
16:41 86.4 °F 65.5 °F 30 in ESE 6.9 mph 6.9 mph 50 % 0 in
16:46 86.5 °F 65.1 °F 30 in ESE 12.7 mph 12.7 mph 49 % 0 in
16:51 86.7 °F 65.8 °F 30 in ESE 6.4 mph 6.4 mph 50 % 0 in
16:56 86 °F 65.1 °F 29.9 in ESE 8.1 mph 8.1 mph 50 % 0 in
17:01 86.5 °F 65.7 °F 29.9 in ESE 5.8 mph 5.8 mph 50 % 0 in
17:06 86.2 °F 65.5 °F 29.9 in ESE 12.7 mph 12.7 mph 50 % 0 in
17:11 86.5 °F 65.7 °F 29.9 in ENE 8.1 mph 8.1 mph 50 % 0 in
17:16 86.5 °F 65.7 °F 29.9 in ESE 8.1 mph 8.1 mph 50 % 0 in
17:21 86 °F 65.1 °F 29.9 in ESE 6.9 mph 6.9 mph 50 % 0 in
17:26 86 °F 65.1 °F 29.9 in ESE 11.2 mph 11.2 mph 50 % 0 in
17:31 85.5 °F 65.3 °F 29.9 in ESE 8.1 mph 8.1 mph 51 % 0 in
17:36 86 °F 65.1 °F 29.9 in SSE 5.8 mph 5.8 mph 50 % 0 in
17:41 85.6 °F 64.9 °F 29.9 in NNE 6.9 mph 6.9 mph 50 % 0 in
17:46 85.5 °F 64.8 °F 29.9 in ESE 8.1 mph 8.1 mph 50 % 0 in
17:51 85.6 °F 64.9 °F 29.9 in ESE 8.1 mph 8.1 mph 50 % 0 in
17:56 85.1 °F 64.4 °F 29.9 in ESE 7.4 mph 7.4 mph 50 % 0 in
18:01 85.3 °F 64 °F 29.9 in ESE 5.8 mph 5.8 mph 49 % 0 in
18:06 85.3 °F 64 °F 29.9 in ENE 6.2 mph 6.2 mph 49 % 0 in
18:11 85.3 °F 64 °F 29.9 in East 6.9 mph 6.9 mph 49 % 0 in
18:16 85.1 °F 63.9 °F 29.9 in ESE 9.7 mph 9.7 mph 49 % 0 in
18:21 84.7 °F 63.5 °F 29.9 in ESE 10.5 mph 10.5 mph 49 % 0 in
18:26 84.6 °F 63.9 °F 29.9 in East 8.1 mph 8.1 mph 50 % 0 in
18:31 84.4 °F 63.7 °F 29.9 in ENE 10.4 mph 10.4 mph 50 % 0 in
18:36 84.4 °F 64.2 °F 29.9 in East 9.2 mph 9.2 mph 51 % 0 in
18:42 84 °F 64.6 °F 29.9 in ENE 10.4 mph 10.4 mph 52 % 0 in
18:47 84 °F 64.6 °F 29.9 in SE 9.2 mph 9.2 mph 52 % 0 in
18:52 84 °F 64.9 °F 29.9 in SE 8.1 mph 8.1 mph 53 % 0 in
18:57 83.5 °F 65.1 °F 29.9 in SE 8.5 mph 8.5 mph 54 % 0 in
19:02 82.9 °F 65.1 °F 29.9 in SE 10.4 mph 10.4 mph 55 % 0 in
19:07 82.6 °F 65.3 °F 29.9 in ENE 8.1 mph 8.1 mph 56 % 0 in
19:12 82.4 °F 65.7 °F 29.9 in ESE 6.9 mph 6.9 mph 57 % 0 in
19:17 81.9 °F 65.7 °F 29.9 in ESE 10.4 mph 10.4 mph 58 % 0 in
19:22 81.5 °F 65.8 °F 29.9 in ESE 9.2 mph 9.2 mph 59 % 0 in
19:27 81.1 °F 65.8 °F 29.9 in ESE 8.1 mph 8.1 mph 60 % 0 in
19:32 81 °F 65.8 °F 29.9 in East 6.9 mph 6.9 mph 60 % 0 in
19:37 80.8 °F 66 °F 29.9 in ESE 8.1 mph 8.1 mph 61 % 0 in
19:42 80.4 °F 66.7 °F 29.9 in East 8.1 mph 8.1 mph 63 % 0 in
19:47 80.1 °F 66.7 °F 29.9 in ESE 9.2 mph 9.2 mph 64 % 0 in
19:52 80.1 °F 66.7 °F 29.9 in ESE 4.9 mph 4.9 mph 64 % 0 in
19:57 79.9 °F 66.6 °F 29.9 in ESE 3.5 mph 3.5 mph 64 % 0 in
20:02 79.7 °F 66 °F 29.9 in ENE 2.3 mph   63 % 0 in
20:07 79.7 °F 66.4 °F 29.9 in ESE 3.5 mph 3.5 mph 64 % 0 in
20:12 79.5 °F 66.4 °F 30 in NE 2.3 mph 2.3 mph 64 % 0 in
20:15 75.6 °F 67.1 °F 30 in East 2 mph 2 mph 75 % 0 in
20:17 79.5 °F 66.4 °F 30 in ENE 2.3 mph 2.3 mph 64 % 0 in
20:22 79.3 °F 66 °F 30 in ENE 2.3 mph 2.3 mph 64 % 0 in
20:25 75.4 °F 66.9 °F 30 in East 2 mph 2 mph 75 % 0 in
20:27 79.2 °F 65.8 °F 30 in NE 1.2 mph 1.4 mph 64 % 0 in
20:32 79.2 °F 65.8 °F 30 in Calm     64 % 0 in
20:35 75.2 °F 66.7 °F 30 in ENE 2 mph 3 mph 75 % 0 in
20:37 79.2 °F 65.8 °F 30 in WSW 2.3 mph 2.3 mph 64 % 0 in
20:42 79.3 °F 66 °F 30 in WSW 3.5 mph 3.5 mph 64 % 0 in
20:45 75.2 °F 67.1 °F 29.9 in East 1 mph 3 mph 76 % 0 in
20:47 79.2 °F 65.8 °F 30 in SW 3.5 mph 3.5 mph 64 % 0 in
20:52 79.2 °F 65.8 °F 30 in SW 3.6 mph 3.6 mph 64 % 0 in
20:55 75 °F 66.9 °F 29.9 in Calm   3 mph 76 % 0 in
20:57 79.2 °F 66.4 °F 30 in SW 2.3 mph 2.3 mph 65 % 0 in
21:02 79 °F 66.2 °F 30 in SW 2.3 mph 2.3 mph 65 % 0 in
21:05 75 °F 66.6 °F 30 in NNE 1 mph 2 mph 75 % 0 in
21:07 78.8 °F 66 °F 30 in SW 2.3 mph 2.3 mph 65 % 0 in
21:12 78.8 °F 66 °F 30 in SW 2.3 mph 2.3 mph 65 % 0 in
21:15 74.8 °F 66.7 °F 30 in Calm   2 mph 76 % 0 in
21:17 78.6 °F 66.4 °F 30 in SW 2.6 mph 2.6 mph 66 % 0 in
21:22 78.4 °F 66 °F 30 in WSW 2.6 mph 2.6 mph 66 % 0 in
21:25 74.7 °F 66.6 °F 30 in West 2 mph 2 mph 76 % 0 in
21:27 78.3 °F 66 °F 30 in SW 2.3 mph 2.3 mph 66 % 0 in
21:32 78.3 °F 66 °F 30 in SW 3.5 mph 3.5 mph 66 % 0 in
21:35 74.7 °F 66.9 °F 30 in Calm   1 mph 77 % 0 in
21:37 77.9 °F 66 °F 30 in SW 2.6 mph 2.6 mph 67 % 0 in
21:42 77.7 °F 65.8 °F 30 in WSW 3.5 mph 3.5 mph 67 % 0 in
21:43 77.7 °F 65.8 °F 30 in West 3.5 mph 3.5 mph 67 % 0 in
21:45 74.7 °F 66.9 °F 30 in Calm     77 % 0 in
21:48 77.5 °F 65.7 °F 30 in SW 4.6 mph 4.6 mph 67 % 0 in
21:53 77.4 °F 65.5 °F 30 in SW 5.8 mph 5.8 mph 67 % 0 in
21:55 74.5 °F 66.7 °F 30 in Calm     77 % 0 in
21:58 77.4 °F 66 °F 30 in SW 3.5 mph 3.5 mph 68 % 0 in
22:03 77.2 °F 65.8 °F 30 in SW 2.3 mph   68 % 0 in
22:05 74.1 °F 66.4 °F 30 in Calm   2 mph 77 % 0 in
22:08 77 °F 65.7 °F 30 in SW 2.3 mph 2.3 mph 68 % 0 in
22:13 77 °F 65.7 °F 30 in SW 2.3 mph   68 % 0 in
22:15 73.8 °F 66 °F 30 in Calm     77 % 0 in
22:18 76.8 °F 65.8 °F 30 in West 3.5 mph 3.5 mph 69 % 0 in
22:23 76.8 °F 66.4 °F 30 in SW 2.3 mph 2.3 mph 70 % 0 in
22:25 73.6 °F 65.8 °F 30 in Calm   3 mph 77 % 0 in
22:28 76.6 °F 66 °F 30 in West 2.3 mph 2.3 mph 70 % 0 in
22:33 76.6 °F 66 °F 30 in WSW 2.3 mph 2.3 mph 70 % 0 in
22:35 73.6 °F 66.4 °F 30 in Calm   2 mph 78 % 0 in
22:38 76.5 °F 65.8 °F 30 in West 2.3 mph 2.3 mph 70 % 0 in
22:43 76.3 °F 66.2 °F 30 in SW 1.2 mph   71 % 0 in
22:45 73.6 °F 65.8 °F 29.9 in SW 1 mph 2 mph 77 % 0 in
22:48 76.1 °F 66 °F 30 in SW 1.2 mph   71 % 0 in
22:53 76.1 °F 66 °F 30 in South 1.2 mph   71 % 0 in
22:55 73.4 °F 66 °F 29.9 in SW 1 mph 2 mph 78 % 0 in
22:58 75.9 °F 65.8 °F 30 in SSE 1.2 mph 1.2 mph 71 % 0 in
23:03 75.7 °F 65.7 °F 30 in Calm     71 % 0 in
23:05 73 °F 66 °F 29.9 in Calm   1 mph 79 % 0 in
23:08 75.7 °F 66 °F 30 in SSE 1.2 mph   72 % 0 in
23:13 75.7 °F 66 °F 30 in Calm     72 % 0 in
23:15 73 °F 66 °F 29.9 in SW 1 mph 2 mph 79 % 0 in
23:18 75.7 °F 66.6 °F 30 in South 1.2 mph   73 % 0 in
23:23 75.7 °F 66.6 °F 30 in Calm     73 % 0 in
23:25 72.9 °F 66.4 °F 29.9 in SW 1 mph 2 mph 80 % 0 in
23:28 75.7 °F 66.6 °F 30 in ENE 1.6 mph   73 % 0 in
23:33 75.6 °F 66.4 °F 30 in ENE 1.2 mph 1.4 mph 73 % 0 in
23:35 72.9 °F 66.4 °F 29.9 in Calm   2 mph 80 % 0 in
23:38 75.6 °F 66.4 °F 30 in Calm     73 % 0 in
23:43 75.4 °F 66 °F 30 in Calm     73 % 0 in
23:45 72.7 °F 66.6 °F 29.9 in Calm   1 mph 81 % 0 in
23:48 75.4 °F 66 °F 30 in ENE 1.2 mph   73 % 0 in
23:53 75.4 °F 66 °F 30 in Calm     73 % 0 in
23:55 72.7 °F 66.6 °F 29.9 in ESE 1 mph 1 mph 81 % 0 in
23:58 75.4 °F 66.6 °F 30 in ENE 1.2 mph   74 % 0 in
Meteo Sesrovires
Elogis d' Weather Underground - 3.75 mb

Guio original per  Jim McMurry - jmcmurry@mwt.net Adaptat per a la plantilla per  Wim van der Kuil - Leuven-Template.eu

Trobareu la nostra informacio del temps tambe a:

Weather Underground

AWEKAS